Sycamore, Missouri
Current Conditions -  °F | °C
As of 3:53 PM on Monday 20 Oct 2014 (Local Time) from KBPK Reporting Station
Overcast Overcast  
Wind Chill: 70°   Ceiling: 7000
Heat Index: 70°   Visibility: 9mi
Dew Point: 57°   Wind: 3mph
Humidity: 63%   Direction: NA
Pressure: 30.01"   Gusts: NA
Location:  36.5904°N, 92.2572°W
Report Text: KBPK 202053Z AUTO VRB03KT 9SM OVC070 21/14 A3001 RMK AO2 SLP155 T02110139 56012
Loading
Personal Weather Stations






























Interactive Weather Map
Tropical Storm Tracking
New forecast layout! Learn more

10-Day Weather Forecast

Advertisements
Track Severe Weather on mobile